Time;durP1;ratioP1;P1;durP2;ratioP2;P2;SDS_P1;SDS_P2;PMS_P1;PMS_P2;Temp;Humidity;BMP_temperature;BMP_pressure;BME280_temperature;BME280_humidity;BME280_pressure;Samples;Min_cycle;Max_cycle;Signal;HPM_P1;HPM_P2
2023/12/29 00:02:11;;;;;;;3.90;2.67;;;;;;;9.90;93.09;148624.25;4961104;28;20579;-62
2023/12/29 00:04:39;;;;;;;3.73;2.73;;;;;;;9.85;92.44;148611.78;4951741;28;20685;-62
2023/12/29 00:07:06;;;;;;;5.10;3.40;;;;;;;9.75;94.89;148586.91;4956197;28;20245;-62
2023/12/29 00:09:40;;;;;;;4.83;2.80;;;;;;;9.73;94.54;148583.19;4959911;28;20255;-62
2023/12/29 00:12:07;;;;;;;3.73;3.03;;;;;;;9.64;96.66;148559.50;4961140;28;20243;-62
2023/12/29 00:14:38;;;;;;;5.10;3.30;;;;;;;9.58;97.45;148545.84;4961591;28;20290;-62
2023/12/29 00:17:04;;;;;;;6.70;3.57;;;;;;;9.58;95.26;148545.84;4962229;28;20592;-62
2023/12/29 00:19:33;;;;;;;5.03;3.10;;;;;;;9.53;97.09;148533.41;4956018;28;21077;-62
2023/12/29 00:22:02;;;;;;;5.47;3.10;;;;;;;9.55;95.20;148539.59;4963794;28;20324;-62
2023/12/29 00:24:31;;;;;;;4.27;3.27;;;;;;;9.54;95.76;148537.09;4952657;28;20361;-62
2023/12/29 00:26:57;;;;;;;5.03;2.97;;;;;;;9.58;95.85;148547.06;4958497;28;20284;-62
2023/12/29 00:29:24;;;;;;;5.27;3.27;;;;;;;9.59;95.43;148548.34;4957134;28;20234;-62
2023/12/29 00:31:51;;;;;;;6.37;3.50;;;;;;;9.55;95.82;148539.59;4943815;28;20239;-62
2023/12/29 00:34:17;;;;;;;4.50;3.40;;;;;;;9.59;93.30;148549.56;4945419;28;20222;-62
2023/12/29 00:36:44;;;;;;;7.53;3.80;;;;;;;9.70;91.80;148575.72;4956935;28;20228;-62
2023/12/29 00:39:12;;;;;;;4.97;3.37;;;;;;;9.67;92.62;148568.25;4942047;28;20234;-62
2023/12/29 00:41:40;;;;;;;6.20;3.27;;;;;;;9.58;94.09;148547.06;4957549;28;20235;-61
2023/12/29 00:44:07;;;;;;;5.77;3.40;;;;;;;9.64;92.45;148559.50;4948469;28;20230;-61
2023/12/29 00:46:34;;;;;;;5.03;3.43;;;;;;;9.59;92.25;148549.56;4959741;28;20228;-61
2023/12/29 00:49:01;;;;;;;5.23;3.77;;;;;;;9.62;92.33;148555.81;4959479;28;20590;-61
2023/12/29 00:51:28;;;;;;;5.57;3.53;;;;;;;9.61;92.87;148553.31;4925173;28;20243;-62
2023/12/29 00:53:54;;;;;;;4.97;3.40;;;;;;;9.57;93.11;148544.56;4963525;28;20234;-62
2023/12/29 00:56:22;;;;;;;5.47;3.53;;;;;;;9.57;92.43;148543.34;4946529;28;20266;-61
2023/12/29 00:58:49;;;;;;;5.20;3.53;;;;;;;9.56;92.32;148542.09;4957407;28;20598;-61
2023/12/29 01:01:16;;;;;;;7.67;3.80;;;;;;;9.46;93.90;148517.22;4964900;28;20656;-61
2023/12/29 01:03:42;;;;;;;6.33;3.90;;;;;;;9.47;93.56;148518.47;4962387;28;20302;-61
2023/12/29 01:06:09;;;;;;;5.27;3.47;;;;;;;9.55;91.28;148538.38;4949562;28;20226;-61
2023/12/29 01:08:35;;;;;;;6.67;3.80;;;;;;;9.54;92.03;148537.09;4957513;28;20227;-61
2023/12/29 01:11:02;;;;;;;7.90;4.20;;;;;;;9.55;91.95;148539.59;4954580;28;20243;-61
2023/12/29 01:13:31;;;;;;;4.87;3.73;;;;;;;9.58;92.80;148547.06;4962699;28;20235;-62
2023/12/29 01:15:58;;;;;;;6.77;3.80;;;;;;;9.57;91.84;148544.56;4950266;28;20233;-62
2023/12/29 01:18:24;;;;;;;6.03;3.60;;;;;;;9.56;91.48;148540.88;4963443;28;20692;-62
2023/12/29 01:20:51;;;;;;;5.10;3.60;;;;;;;9.59;92.58;148549.56;4947438;28;20228;-62
2023/12/29 01:23:18;;;;;;;4.60;3.17;;;;;;;9.63;91.70;148558.28;4948163;28;20235;-62
2023/12/29 01:25:44;;;;;;;6.00;3.80;;;;;;;9.64;91.96;148560.78;4947349;28;20247;-62
2023/12/29 01:28:11;;;;;;;6.90;3.70;;;;;;;9.64;92.75;148559.50;4948042;28;20250;-62
2023/12/29 01:30:39;;;;;;;5.97;3.43;;;;;;;9.62;92.91;148554.53;4961795;28;20231;-62
2023/12/29 01:33:06;;;;;;;5.63;3.63;;;;;;;9.57;92.05;148544.56;4967681;28;20235;-62
2023/12/29 01:35:32;;;;;;;6.10;3.73;;;;;;;9.56;93.07;148540.88;4964527;28;20239;-62
2023/12/29 01:38:00;;;;;;;6.23;3.70;;;;;;;9.51;93.52;148528.41;4949341;28;20234;-62
2023/12/29 01:40:27;;;;;;;5.90;3.80;;;;;;;9.50;93.70;148527.19;4965189;28;20233;-62
2023/12/29 01:42:54;;;;;;;5.57;3.77;;;;;;;9.53;93.42;148533.41;4959284;28;20234;-62
2023/12/29 01:45:26;;;;;;;5.60;3.80;;;;;;;9.57;92.24;148544.56;4949818;28;20251;-62
2023/12/29 01:47:54;;;;;;;5.57;3.50;;;;;;;9.55;93.15;148539.59;4958606;28;20231;-62
2023/12/29 01:50:22;;;;;;;5.13;3.83;;;;;;;9.59;91.76;148548.34;4956311;28;20231;-62
2023/12/29 01:52:51;;;;;;;5.00;3.67;;;;;;;9.54;92.89;148535.88;4946895;28;20243;-62
2023/12/29 01:55:21;;;;;;;7.10;3.63;;;;;;;9.52;93.58;148532.19;4964726;28;20239;-62
2023/12/29 01:57:49;;;;;;;7.57;4.00;;;;;;;9.48;94.36;148522.22;4961507;28;20688;-62
2023/12/29 02:00:18;;;;;;;4.87;3.70;;;;;;;9.50;94.41;148525.94;4962739;28;20236;-62
2023/12/29 02:02:47;;;;;;;4.50;2.97;;;;;;;9.58;94.69;148545.84;4946289;28;20707;-62
2023/12/29 02:05:15;;;;;;;5.67;3.40;;;;;;;9.49;95.55;148523.44;4949592;28;20331;-62
2023/12/29 02:07:42;;;;;;;4.53;3.60;;;;;;;9.47;95.97;148518.47;4946711;28;20341;-62
2023/12/29 02:10:13;;;;;;;4.43;2.93;;;;;;;9.50;96.27;148525.94;4957883;28;20229;-62
2023/12/29 02:12:40;;;;;;;4.77;2.87;;;;;;;9.51;95.69;148529.69;4959580;28;20254;-62
2023/12/29 02:15:08;;;;;;;5.67;3.10;;;;;;;9.51;97.75;148529.69;4964995;28;20270;-62
2023/12/29 02:17:39;;;;;;;4.53;3.07;;;;;;;9.49;97.01;148523.44;4961932;28;20231;-62
2023/12/29 02:20:08;;;;;;;5.57;3.07;;;;;;;9.47;97.66;148519.72;4949979;28;20777;-62
2023/12/29 02:22:36;;;;;;;5.40;2.67;;;;;;;9.46;98.98;148517.22;4962972;28;20234;-62
2023/12/29 02:25:04;;;;;;;5.00;3.07;;;;;;;9.48;98.97;148522.22;4963751;28;20279;-62
2023/12/29 02:27:41;;;;;;;3.47;2.93;;;;;;;9.45;98.97;148514.75;4946886;28;20234;-62
2023/12/29 02:30:12;;;;;;;4.23;2.80;;;;;;;9.43;99.71;148509.78;4947716;28;20238;-62
2023/12/29 02:32:42;;;;;;;4.10;3.17;;;;;;;9.41;98.80;148506.00;4962911;28;20244;-62
2023/12/29 02:35:11;;;;;;;6.67;3.30;;;;;;;9.45;98.29;148515.97;4964693;28;20235;-62
2023/12/29 02:37:39;;;;;;;7.00;3.60;;;;;;;9.44;96.98;148513.47;4958504;28;20314;-62
2023/12/29 02:40:09;;;;;;;5.70;3.67;;;;;;;9.39;96.41;148499.81;4947936;28;20221;-62
2023/12/29 02:42:35;;;;;;;4.60;3.47;;;;;;;9.45;95.80;148514.75;4946506;28;20230;-62
2023/12/29 02:45:02;;;;;;;6.30;3.20;;;;;;;9.45;95.83;148515.97;4965860;28;20236;-62
2023/12/29 02:47:29;;;;;;;5.77;3.50;;;;;;;9.40;95.29;148503.53;4945265;28;20603;-62
2023/12/29 02:49:56;;;;;;;4.17;3.57;;;;;;;9.43;95.21;148511.00;4961754;28;20240;-62
2023/12/29 02:52:22;;;;;;;3.93;2.80;;;;;;;9.47;94.82;148518.47;4948952;28;20235;-62
2023/12/29 02:54:49;;;;;;;5.63;3.47;;;;;;;9.43;95.52;148509.78;4958897;28;20586;-62
2023/12/29 02:57:17;;;;;;;4.70;3.27;;;;;;;9.42;95.16;148508.50;4948117;28;20234;-62
2023/12/29 02:59:43;;;;;;;4.20;3.10;;;;;;;9.42;95.23;148507.28;4944565;28;20220;-62
2023/12/29 03:02:10;;;;;;;7.10;2.87;;;;;;;9.40;96.46;148503.53;4949323;28;20236;-62
2023/12/29 03:04:37;;;;;;;5.23;2.70;;;;;;;9.40;96.86;148502.31;4943426;28;20701;-61
2023/12/29 03:07:03;;;;;;;4.10;2.77;;;;;;;9.39;98.03;148499.81;4948992;28;20231;-61
2023/12/29 03:09:29;;;;;;;4.27;3.07;;;;;;;9.41;97.80;148504.78;4959497;28;20283;-61
2023/12/29 03:11:56;;;;;;;4.30;2.80;;;;;;;9.40;98.27;148503.53;4963965;28;20397;-61
2023/12/29 03:14:24;;;;;;;4.53;2.83;;;;;;;9.38;97.71;148497.31;4956607;28;20243;-61
2023/12/29 03:16:50;;;;;;;3.80;3.00;;;;;;;9.38;98.21;148498.53;4944916;28;20231;-61
2023/12/29 03:19:17;;;;;;;5.10;2.63;;;;;;;9.38;98.74;148498.53;4946369;28;20231;-61
2023/12/29 03:21:44;;;;;;;3.50;2.27;;;;;;;9.40;97.68;148503.53;4955478;28;20242;-61
2023/12/29 03:24:10;;;;;;;3.93;2.70;;;;;;;9.37;97.45;148494.84;4946055;28;20238;-61
2023/12/29 03:26:37;;;;;;;2.90;2.13;;;;;;;9.33;99.36;148486.09;4946206;28;20244;-62
2023/12/29 03:29:04;;;;;;;4.30;2.43;;;;;;;9.33;99.40;148486.09;4962177;28;20242;-62
2023/12/29 03:31:32;;;;;;;4.53;2.40;;;;;;;9.36;99.33;148493.56;4958315;28;21008;-62
2023/12/29 03:33:59;;;;;;;2.93;2.20;;;;;;;9.39;99.00;148499.81;4959546;28;20245;-62
2023/12/29 03:36:25;;;;;;;3.70;2.23;;;;;;;9.41;98.50;148504.78;4937826;28;20228;-62
2023/12/29 03:38:52;;;;;;;2.67;2.23;;;;;;;9.41;98.60;148506.00;4945215;28;20242;-62
2023/12/29 03:41:19;;;;;;;4.57;2.13;;;;;;;9.43;99.55;148509.78;4945431;28;20236;-62
2023/12/29 03:43:47;;;;;;;4.27;2.07;;;;;;;9.44;99.09;148513.47;4950641;28;20226;-62
2023/12/29 03:46:18;;;;;;;2.90;2.20;;;;;;;9.46;98.53;148517.22;4945655;28;20235;-62
2023/12/29 03:48:46;;;;;;;3.50;2.47;;;;;;;9.44;99.07;148513.47;4957407;28;20565;-62
2023/12/29 03:51:13;;;;;;;3.47;2.10;;;;;;;9.49;99.35;148524.69;4960700;28;20235;-62
2023/12/29 03:53:40;;;;;;;3.00;2.27;;;;;;;9.44;98.66;148512.25;4940115;28;20218;-61
2023/12/29 03:56:08;;;;;;;4.20;2.17;;;;;;;9.40;99.38;148502.31;4947004;28;20227;-61
2023/12/29 03:58:34;;;;;;;3.60;2.33;;;;;;;9.43;99.38;148509.78;4957184;28;20227;-61
2023/12/29 04:03:53;;;;;;;4.03;2.60;;;;;;;9.42;99.17;148507.28;5701693;23;20238;-62
2023/12/29 04:06:20;;;;;;;2.97;2.30;;;;;;;9.42;99.93;148507.28;4969615;28;20235;-62
2023/12/29 04:08:47;;;;;;;4.73;2.50;;;;;;;9.39;100.00;148499.81;4973031;28;20596;-62
2023/12/29 04:11:13;;;;;;;2.87;2.20;;;;;;;9.38;100.00;148498.53;4955150;28;20226;-62
2023/12/29 04:13:40;;;;;;;3.70;2.40;;;;;;;9.32;100.00;148482.38;4957366;28;20278;-62
2023/12/29 04:16:07;;;;;;;3.00;2.10;;;;;;;9.27;100.00;148472.44;4978902;28;20355;-62
2023/12/29 04:18:34;;;;;;;2.77;2.00;;;;;;;9.35;100.00;148489.84;4963446;28;20241;-62
2023/12/29 04:21:02;;;;;;;2.70;2.00;;;;;;;9.39;99.96;148499.81;4976315;28;20308;-62
2023/12/29 04:23:29;;;;;;;3.40;2.23;;;;;;;9.40;100.00;148503.53;4955087;28;20231;-62
2023/12/29 04:25:57;;;;;;;3.83;2.30;;;;;;;9.39;100.00;148499.81;4979424;28;20228;-62
2023/12/29 04:28:23;;;;;;;2.97;2.10;;;;;;;9.36;100.00;148492.34;4966339;28;20233;-62
2023/12/29 04:33:22;;;;;;;3.60;2.43;;;;;;;9.39;100.00;148501.03;4954321;28;20227;-55
2023/12/29 04:35:50;;;;;;;4.07;2.10;;;;;;;9.39;100.00;148501.03;4962066;28;20244;-54
2023/12/29 04:38:19;;;;;;;2.60;1.83;;;;;;;9.37;100.00;148494.84;4977889;28;20247;-53
2023/12/29 04:40:46;;;;;;;4.37;2.67;;;;;;;9.41;100.00;148506.00;4962579;28;20455;-52
2023/12/29 04:43:13;;;;;;;4.10;2.33;;;;;;;9.38;100.00;148497.31;4968637;28;20788;-55
2023/12/29 04:45:40;;;;;;;3.70;2.00;;;;;;;9.35;100.00;148491.06;4965254;28;21383;-56
2023/12/29 04:48:07;;;;;;;5.67;2.77;;;;;;;9.32;100.00;148483.59;4968914;28;20234;-53
2023/12/29 04:50:34;;;;;;;3.23;2.20;;;;;;;9.28;100.00;148474.91;4964470;28;20222;-52
2023/12/29 04:53:00;;;;;;;2.63;2.10;;;;;;;9.26;100.00;148468.66;4966995;28;20253;-54
2023/12/29 04:55:28;;;;;;;2.47;1.93;;;;;;;9.30;100.00;148478.63;4964920;28;20234;-55
2023/12/29 04:57:55;;;;;;;5.03;1.80;;;;;;;9.28;100.00;148474.91;4964834;28;20740;-54
2023/12/29 05:00:21;;;;;;;2.97;2.30;;;;;;;9.29;100.00;148476.13;4966765;28;20227;-52
2023/12/29 05:02:48;;;;;;;3.70;2.07;;;;;;;9.32;100.00;148483.59;4966154;28;20701;-53
2023/12/29 05:05:15;;;;;;;2.57;1.90;;;;;;;9.31;100.00;148481.13;4965337;28;20235;-52
2023/12/29 05:07:42;;;;;;;4.77;2.00;;;;;;;9.29;100.00;148477.41;4962242;28;20266;-55
2023/12/29 05:10:09;;;;;;;3.57;2.30;;;;;;;9.31;100.00;148481.13;4968075;28;20230;-54
2023/12/29 05:12:37;;;;;;;3.53;1.80;;;;;;;9.37;100.00;148494.84;4964239;28;20621;-54
2023/12/29 05:15:05;;;;;;;3.83;2.00;;;;;;;9.39;100.00;148501.03;4965150;28;20232;-55
2023/12/29 05:17:31;;;;;;;3.50;2.57;;;;;;;9.39;100.00;148499.81;4965195;28;20246;-56
2023/12/29 05:19:58;;;;;;;2.47;1.90;;;;;;;9.39;100.00;148501.03;4967579;28;20246;-52
2023/12/29 05:22:24;;;;;;;2.90;2.30;;;;;;;9.38;100.00;148497.31;4967942;28;20714;-52
2023/12/29 05:24:51;;;;;;;3.93;2.17;;;;;;;9.36;100.00;148492.34;4964259;28;20227;-55
2023/12/29 05:27:18;;;;;;;3.27;2.10;;;;;;;9.36;100.00;148492.34;4966704;28;20226;-53
2023/12/29 05:29:46;;;;;;;5.50;2.47;;;;;;;9.37;100.00;148496.06;4963447;28;20249;-55
2023/12/29 05:32:12;;;;;;;4.30;1.97;;;;;;;9.34;100.00;148487.38;4965648;28;20232;-58
2023/12/29 05:34:39;;;;;;;3.63;1.93;;;;;;;9.29;100.00;148477.41;4963893;28;20230;-55
2023/12/29 05:37:05;;;;;;;3.70;2.00;;;;;;;9.24;100.00;148463.69;4965079;28;20214;-52
2023/12/29 05:39:35;;;;;;;2.87;1.93;;;;;;;9.28;100.00;148474.91;4960696;28;20233;-52
2023/12/29 05:42:01;;;;;;;3.30;2.07;;;;;;;9.28;100.00;148474.91;4967533;28;20318;-55
2023/12/29 05:44:28;;;;;;;4.40;2.10;;;;;;;9.31;100.00;148481.13;4963707;28;20314;-53
2023/12/29 05:46:56;;;;;;;5.97;1.90;;;;;;;9.28;100.00;148473.66;4963792;28;20278;-52
2023/12/29 05:49:25;;;;;;;2.67;1.90;;;;;;;9.28;100.00;148474.91;4965940;28;20311;-56
2023/12/29 05:51:52;;;;;;;4.03;1.97;;;;;;;9.31;100.00;148481.13;4961679;28;20238;-52
2023/12/29 05:54:19;;;;;;;3.10;1.93;;;;;;;9.33;100.00;148486.09;4963452;28;20250;-53
2023/12/29 05:56:45;;;;;;;3.47;2.40;;;;;;;9.32;100.00;148482.38;4961757;28;20224;-55
2023/12/29 05:59:12;;;;;;;4.00;2.10;;;;;;;9.34;100.00;148487.38;4965039;28;20246;-53
2023/12/29 06:01:39;;;;;;;4.00;2.57;;;;;;;9.33;100.00;148486.09;4962149;28;20246;-53
2023/12/29 06:04:07;;;;;;;3.33;1.70;;;;;;;9.33;100.00;148484.88;4965084;28;20704;-53
2023/12/29 06:06:34;;;;;;;4.53;2.13;;;;;;;9.35;100.00;148489.84;4962044;28;20314;-55
2023/12/29 06:09:00;;;;;;;2.73;1.80;;;;;;;9.35;100.00;148489.84;4966261;28;20252;-53
2023/12/29 06:11:27;;;;;;;2.37;2.07;;;;;;;9.37;100.00;148494.84;4964538;28;20265;-53
2023/12/29 06:13:54;;;;;;;2.80;1.80;;;;;;;9.34;100.00;148488.59;4962344;28;20266;-54
2023/12/29 06:16:21;;;;;;;3.63;1.90;;;;;;;9.35;100.00;148489.84;4965995;28;20698;-57
2023/12/29 06:18:47;;;;;;;4.73;1.83;;;;;;;9.37;100.00;148494.84;4959792;28;20240;-55
2023/12/29 06:21:16;;;;;;;2.80;1.80;;;;;;;9.39;100.00;148499.81;4966169;28;20290;-57
2023/12/29 06:23:42;;;;;;;3.07;1.80;;;;;;;9.41;100.00;148506.00;4962780;28;20338;-55
2023/12/29 06:26:15;;;;;;;4.07;1.97;;;;;;;9.36;100.00;148492.34;4964389;28;20309;-56
2023/12/29 06:28:42;;;;;;;2.43;1.93;;;;;;;9.34;100.00;148487.38;4960555;28;20713;-56
2023/12/29 06:31:09;;;;;;;3.00;1.80;;;;;;;9.38;100.00;148497.31;4963823;28;20234;-56
2023/12/29 06:33:36;;;;;;;4.00;2.13;;;;;;;9.36;100.00;148492.34;4963116;28;20240;-56
2023/12/29 06:36:03;;;;;;;1.93;1.70;;;;;;;9.39;100.00;148501.03;4965354;28;20375;-56
2023/12/29 06:38:33;;;;;;;1.53;1.43;;;;;;;9.44;100.00;148512.25;4961878;28;20241;-56
2023/12/29 06:41:00;;;;;;;3.67;1.60;;;;;;;9.38;100.00;148497.31;4965904;28;20251;-53
2023/12/29 06:43:27;;;;;;;3.97;2.47;;;;;;;9.38;100.00;148498.53;4963818;28;20317;-56
2023/12/29 06:45:54;;;;;;;2.83;1.90;;;;;;;9.39;100.00;148501.03;4962941;28;20225;-54
2023/12/29 06:48:20;;;;;;;3.83;3.17;;;;;;;9.48;100.00;148520.94;4961612;28;20307;-55
2023/12/29 06:50:47;;;;;;;4.10;1.90;;;;;;;9.41;100.00;148506.00;4962652;28;20242;-56
2023/12/29 06:53:14;;;;;;;8.23;7.17;;;;;;;9.37;100.00;148496.06;4965363;28;20678;-56
2023/12/29 06:55:42;;;;;;;6.03;5.43;;;;;;;9.35;100.00;148491.06;4961150;28;20564;-53
2023/12/29 06:58:09;;;;;;;6.60;6.00;;;;;;;9.32;100.00;148483.59;4977091;28;20638;-55
2023/12/29 07:00:35;;;;;;;5.47;2.70;;;;;;;9.34;100.00;148487.38;4961651;28;20234;-55
2023/12/29 07:03:02;;;;;;;3.25;2.60;;;;;;;9.42;100.00;148508.50;4964228;28;20440;-53
2023/12/29 07:05:29;;;;;;;3.13;1.93;;;;;;;9.43;100.00;148509.78;4962476;28;20228;-54
2023/12/29 07:07:56;;;;;;;3.17;2.00;;;;;;;9.44;100.00;148512.25;4965132;28;20240;-54
2023/12/29 07:10:22;;;;;;;2.73;1.87;;;;;;;9.42;100.00;148507.28;4964879;28;20746;-53
2023/12/29 07:12:50;;;;;;;3.23;2.03;;;;;;;9.50;100.00;148527.19;4962485;28;20295;-53
2023/12/29 07:15:17;;;;;;;3.70;1.90;;;;;;;9.45;100.00;148515.97;4963394;28;20232;-53
2023/12/29 07:17:44;;;;;;;3.37;2.17;;;;;;;9.44;100.00;148513.47;4960081;28;20233;-54
2023/12/29 07:20:11;;;;;;;2.73;2.00;;;;;;;9.48;100.00;148522.22;4964886;28;20233;-53
2023/12/29 07:22:38;;;;;;;4.63;1.90;;;;;;;9.50;100.00;148527.19;4959778;28;20239;-56
2023/12/29 07:25:05;;;;;;;3.73;2.40;;;;;;;9.51;100.00;148528.41;4964294;28;20236;-56
2023/12/29 07:27:32;;;;;;;3.10;2.13;;;;;;;9.51;100.00;148529.69;4960317;28;20238;-55
2023/12/29 07:30:00;;;;;;;4.43;2.83;;;;;;;9.61;100.00;148553.31;4963522;28;20233;-57
2023/12/29 07:32:26;;;;;;;2.83;2.33;;;;;;;9.66;100.00;148564.50;4964111;28;20315;-56
2023/12/29 07:34:53;;;;;;;4.47;2.30;;;;;;;9.64;100.00;148559.50;4956765;28;20242;-56
2023/12/29 07:37:20;;;;;;;4.30;2.20;;;;;;;9.68;100.00;148569.47;4961527;28;20573;-55
2023/12/29 07:39:47;;;;;;;2.97;1.87;;;;;;;9.68;100.00;148569.47;4961884;28;20230;-54
2023/12/29 07:42:16;;;;;;;2.90;2.23;;;;;;;9.72;100.00;148580.69;4964500;28;20245;-56
2023/12/29 07:44:43;;;;;;;3.40;2.20;;;;;;;9.75;100.00;148588.16;4961095;28;20237;-56
2023/12/29 07:47:11;;;;;;;3.73;3.00;;;;;;;9.73;100.00;148583.19;4962553;28;20245;-53
2023/12/29 07:49:38;;;;;;;2.70;2.30;;;;;;;9.72;100.00;148580.69;4960210;28;20407;-56
2023/12/29 07:52:05;;;;;;;3.77;2.17;;;;;;;9.72;100.00;148579.44;4961509;28;20325;-53
2023/12/29 07:54:36;;;;;;;2.63;2.30;;;;;;;9.71;100.00;148576.94;4959950;28;20241;-54
2023/12/29 07:57:03;;;;;;;3.50;2.20;;;;;;;9.72;100.00;148579.44;4962327;28;20395;-53
2023/12/29 07:59:29;;;;;;;3.00;2.10;;;;;;;9.74;100.00;148584.41;4960011;28;20264;-54
2023/12/29 08:01:57;;;;;;;4.03;2.67;;;;;;;9.72;100.00;148580.69;4964063;28;20239;-53
2023/12/29 08:04:25;;;;;;;5.53;4.37;;;;;;;9.73;100.00;148581.91;4965247;28;20293;-54
2023/12/29 08:06:52;;;;;;;7.17;5.83;;;;;;;9.75;100.00;148588.16;4960769;28;20234;-52
2023/12/29 08:09:19;;;;;;;3.07;2.40;;;;;;;9.75;100.00;148586.91;4962677;28;20231;-52
2023/12/29 08:11:46;;;;;;;5.40;4.57;;;;;;;9.77;100.00;148591.88;4959775;28;20915;-54
2023/12/29 08:14:12;;;;;;;2.67;2.20;;;;;;;9.90;100.00;148624.25;4962949;28;20235;-55
2023/12/29 08:16:40;;;;;;;4.63;3.90;;;;;;;9.92;100.00;148628.00;4961246;28;20218;-53
2023/12/29 08:19:07;;;;;;;2.13;1.70;;;;;;;9.95;100.00;148634.22;4962628;28;20232;-55
2023/12/29 08:21:35;;;;;;;2.77;1.80;;;;;;;9.98;100.00;148642.94;4958578;28;20411;-54
2023/12/29 08:24:02;;;;;;;4.03;2.10;;;;;;;10.04;100.00;148656.63;4964377;28;20599;-53
2023/12/29 08:26:29;;;;;;;3.50;2.57;;;;;;;10.03;100.00;148654.13;4961424;28;20223;-54
2023/12/29 08:28:56;;;;;;;5.67;2.77;;;;;;;9.97;100.00;148639.19;4963558;28;20230;-54
2023/12/29 08:31:23;;;;;;;3.27;1.60;;;;;;;9.99;100.00;148645.44;4962557;28;20319;-54
2023/12/29 08:33:49;;;;;;;6.87;3.73;;;;;;;9.98;100.00;148641.69;4960537;28;20314;-53
2023/12/29 08:36:19;;;;;;;3.27;1.67;;;;;;;10.00;100.00;148646.66;4963799;28;20215;-53
2023/12/29 08:38:47;;;;;;;2.87;1.63;;;;;;;10.02;99.96;148651.63;4960950;28;20251;-55
2023/12/29 08:41:15;;;;;;;2.53;2.33;;;;;;;9.96;100.00;148636.69;4959299;28;20785;-55
2023/12/29 08:43:41;;;;;;;1.90;1.60;;;;;;;9.98;100.00;148642.94;4959509;28;20226;-55
2023/12/29 08:46:08;;;;;;;2.10;1.90;;;;;;;9.97;100.00;148639.19;4963610;28;20232;-54
2023/12/29 08:48:35;;;;;;;4.50;3.80;;;;;;;9.94;100.00;148632.97;4959142;28;20232;-55
2023/12/29 08:51:01;;;;;;;2.40;2.20;;;;;;;9.96;100.00;148636.69;4962909;28;20299;-56
2023/12/29 08:53:31;;;;;;;2.73;1.80;;;;;;;10.02;100.00;148651.63;4963569;28;20224;-54
2023/12/29 08:55:59;;;;;;;3.43;1.67;;;;;;;9.94;100.00;148631.72;4962413;28;20233;-53
2023/12/29 08:58:25;;;;;;;3.37;1.70;;;;;;;9.84;100.00;148608.09;4962033;28;20245;-54
2023/12/29 09:00:52;;;;;;;2.33;1.80;;;;;;;9.84;100.00;148608.09;4961364;28;20248;-52
2023/12/29 09:03:18;;;;;;;3.03;2.20;;;;;;;9.77;100.00;148591.88;4962208;28;20239;-54
2023/12/29 09:05:45;;;;;;;19.63;3.23;;;;;;;9.80;100.00;148598.13;4960120;28;20541;-54
2023/12/29 09:08:12;;;;;;;5.03;3.30;;;;;;;9.74;100.00;148584.41;4964248;28;20233;-54
2023/12/29 09:10:39;;;;;;;4.20;2.07;;;;;;;9.74;100.00;148584.41;4959025;28;20264;-55
2023/12/29 09:13:07;;;;;;;4.77;2.83;;;;;;;9.64;100.00;148559.50;4962737;28;20314;-55
2023/12/29 09:15:34;;;;;;;2.87;2.30;;;;;;;9.63;100.00;148558.28;4959078;28;20713;-55
2023/12/29 09:18:01;;;;;;;4.40;2.50;;;;;;;9.69;100.00;148573.22;4961067;28;20249;-53
2023/12/29 09:20:27;;;;;;;3.10;2.00;;;;;;;9.66;100.00;148564.50;4966670;28;20245;-55
2023/12/29 09:22:55;;;;;;;2.90;1.80;;;;;;;9.79;100.00;148595.63;4961557;28;20234;-55
2023/12/29 09:25:22;;;;;;;8.87;2.70;;;;;;;9.88;100.00;148619.25;4965431;28;20228;-53
2023/12/29 09:27:49;;;;;;;9.57;4.10;;;;;;;9.93;100.00;148629.22;4962230;28;20251;-52
2023/12/29 09:30:17;;;;;;;8.70;1.90;;;;;;;10.01;100.00;148650.41;4967408;28;20243;-53
2023/12/29 09:32:44;;;;;;;3.47;1.80;;;;;;;10.12;100.00;148675.28;4961822;28;20249;-54
2023/12/29 09:35:10;;;;;;;6.23;3.37;;;;;;;10.09;100.00;148669.06;4964108;28;20261;-53
2023/12/29 09:37:37;;;;;;;2.10;1.67;;;;;;;9.93;100.00;148629.22;4959339;28;20221;-55
2023/12/29 09:40:04;;;;;;;1.97;1.50;;;;;;;9.93;100.00;148629.22;4965269;28;20587;-53
2023/12/29 09:42:32;;;;;;;2.03;1.30;;;;;;;9.88;100.00;148619.25;4961752;28;20224;-54
2023/12/29 09:45:03;;;;;;;1.73;1.20;;;;;;;9.88;100.00;148619.25;4965925;28;20232;-55
2023/12/29 09:47:34;;;;;;;2.30;1.40;;;;;;;10.01;100.00;148650.41;4965087;28;20239;-55
2023/12/29 09:50:01;;;;;;;2.13;1.43;;;;;;;10.04;100.00;148657.88;4967263;28;20243;-53
2023/12/29 09:52:28;;;;;;;2.83;1.20;;;;;;;10.14;100.00;148680.25;4962527;28;20241;-55
2023/12/29 09:54:54;;;;;;;4.00;2.20;;;;;;;10.19;100.00;148692.69;4963879;28;20240;-55
2023/12/29 09:57:21;;;;;;;1.70;1.13;;;;;;;10.26;98.93;148708.91;4965851;28;20222;-53
2023/12/29 09:59:51;;;;;;;1.90;1.63;;;;;;;10.31;97.32;148721.38;4960849;28;20221;-54
2023/12/29 10:02:18;;;;;;;1.70;1.30;;;;;;;10.21;97.34;148697.69;4966116;28;20235;-55
2023/12/29 10:04:46;;;;;;;1.33;1.17;;;;;;;10.26;98.10;148708.91;4963572;28;20251;-56
2023/12/29 10:07:19;;;;;;;3.50;1.37;;;;;;;10.35;97.04;148731.34;4983336;28;20703;-54
2023/12/29 10:09:47;;;;;;;1.90;1.40;;;;;;;10.36;94.69;148733.81;4962562;28;20235;-56
2023/12/29 10:12:15;;;;;;;3.37;2.33;;;;;;;10.36;96.27;148732.56;4963672;28;20254;-55
2023/12/29 10:14:47;;;;;;;3.30;1.93;;;;;;;10.31;96.94;148721.38;4962265;28;20232;-56
2023/12/29 10:17:24;;;;;;;10.60;4.67;;;;;;;10.29;96.42;148716.38;4965348;28;20224;-56
2023/12/29 10:20:02;;;;;;;3.80;2.87;;;;;;;10.30;96.37;148720.09;4961391;28;20259;-54
2023/12/29 10:22:38;;;;;;;1.93;1.10;;;;;;;10.29;95.39;148716.38;4962855;28;20309;-54
2023/12/29 10:25:06;;;;;;;3.03;1.80;;;;;;;10.28;95.97;148713.91;4964390;28;20266;-52
2023/12/29 10:27:33;;;;;;;2.23;1.37;;;;;;;10.22;96.20;148698.94;4958765;28;20236;-55
2023/12/29 10:30:00;;;;;;;2.27;1.40;;;;;;;10.19;96.14;148693.97;4965249;28;20327;-54
2023/12/29 10:32:28;;;;;;;2.40;1.60;;;;;;;10.25;95.98;148706.44;4965622;28;20695;-52
2023/12/29 10:35:09;;;;;;;1.60;1.43;;;;;;;10.37;94.54;148736.31;4962808;28;20587;-52
2023/12/29 10:37:36;;;;;;;1.30;1.10;;;;;;;10.59;92.28;148788.69;4961229;28;20258;-53
2023/12/29 10:40:03;;;;;;;2.33;1.37;;;;;;;10.73;93.50;148822.28;4964813;28;20582;-52
2023/12/29 10:42:29;;;;;;;1.60;1.30;;;;;;;10.73;89.21;148823.50;4963468;28;20370;-56
2023/12/29 10:45:07;;;;;;;2.50;1.40;;;;;;;10.86;88.68;148854.66;4963199;28;20690;-54
2023/12/29 10:47:34;;;;;;;2.03;1.13;;;;;;;10.91;89.07;148867.13;4962234;28;20276;-55
2023/12/29 10:50:04;;;;;;;2.30;1.20;;;;;;;10.99;89.01;148885.78;4965140;28;20231;-52
2023/12/29 10:52:32;;;;;;;1.83;0.93;;;;;;;10.94;89.43;148873.34;4961473;28;20306;-56
2023/12/29 10:55:06;;;;;;;3.57;1.30;;;;;;;11.18;86.54;148930.66;4963846;28;20231;-53
2023/12/29 10:57:33;;;;;;;4.77;1.30;;;;;;;11.11;87.75;148913.22;4962197;28;20235;-55
2023/12/29 11:00:01;;;;;;;1.40;1.30;;;;;;;11.21;88.42;148939.34;4966132;28;20236;-54
2023/12/29 11:02:27;;;;;;;3.30;1.43;;;;;;;11.20;86.96;148936.84;4964739;28;20231;-54
2023/12/29 11:05:04;;;;;;;2.10;1.37;;;;;;;11.31;86.07;148961.78;4956788;28;20243;-56
2023/12/29 11:07:40;;;;;;;3.20;1.90;;;;;;;11.37;87.24;148978.00;4959187;28;20300;-56
2023/12/29 11:10:09;;;;;;;2.57;1.60;;;;;;;11.38;86.53;148979.22;4965076;28;20234;-53
2023/12/29 11:12:36;;;;;;;3.13;1.70;;;;;;;11.34;87.21;148970.53;4962689;28;20228;-55
2023/12/29 11:15:04;;;;;;;2.60;1.40;;;;;;;11.52;87.77;149014.13;4962828;28;20235;-55
2023/12/29 11:17:32;;;;;;;4.13;2.00;;;;;;;11.62;89.37;149037.81;4962087;28;20235;-55
2023/12/29 11:20:01;;;;;;;2.23;1.70;;;;;;;11.78;85.78;149076.44;4966459;28;20259;-55
2023/12/29 11:22:31;;;;;;;2.63;1.50;;;;;;;11.65;85.93;149044.03;4963313;28;20232;-53
2023/12/29 11:24:59;;;;;;;3.40;1.63;;;;;;;11.57;86.86;149025.34;4962910;28;20225;-56
2023/12/29 11:27:28;;;;;;;10.63;2.30;;;;;;;11.54;88.08;149017.88;4962657;28;20312;-56
2023/12/29 11:29:56;;;;;;;2.30;1.50;;;;;;;11.52;87.12;149014.13;4961533;28;20236;-55
2023/12/29 11:32:28;;;;;;;11.73;2.10;;;;;;;11.35;89.58;148971.75;4963334;28;20592;-56
2023/12/29 11:35:08;;;;;;;2.53;1.80;;;;;;;11.35;89.28;148973.03;4961721;28;20230;-54